Time;durP1;ratioP1;P1;durP2;ratioP2;P2;SDS_P1;SDS_P2;PMS_P1;PMS_P2;Temp;Humidity;BMP_temperature;BMP_pressure;BME280_temperature;BME280_humidity;BME280_pressure;Samples;Min_cycle;Max_cycle;Signal;HPM_P1;HPM_P2
2020/12/22 00:01:17;;;;;;;;;;;;;;;;;;4401211;32;20158;-72
2020/12/22 00:03:43;;;;;;;5.05;3.70;;;;;;;;;;4386008;32;19987;-73
2020/12/22 00:06:09;;;;;;;5.45;3.67;;;;;;;;;;4405492;32;20069;-72
2020/12/22 00:08:35;;;;;;;5.28;3.55;;;;;;;;;;4380339;32;20085;-71
2020/12/22 00:11:01;;;;;;;;;;;;;;;;;;4392651;32;20074;-73
2020/12/22 00:13:26;;;;;;;6.12;3.35;;;;;;;;;;4405540;32;19980;-72
2020/12/22 00:15:52;;;;;;;;;;;;;;;;;;4407039;32;20088;-72
2020/12/22 00:18:18;;;;;;;6.40;3.70;;;;;;;;;;4392250;32;19987;-72
2020/12/22 00:20:43;;;;;;;;;;;;;;;;;;4380543;32;20152;-72
2020/12/22 00:23:09;;;;;;;5.37;3.65;;;;;;;;;;4405285;32;20466;-73
2020/12/22 00:25:48;;;;;;;6.43;4.12;;;;;;;;;;4405020;32;20168;-72
2020/12/22 00:28:14;;;;;;;6.35;3.62;;;;;;;;;;4392459;32;20472;-72
2020/12/22 00:30:40;;;;;;;7.22;3.50;;;;;;;;;;4367430;32;20077;-72
2020/12/22 00:33:06;;;;;;;6.03;3.60;;;;;;;;;;4405164;32;20507;-72
2020/12/22 00:35:32;;;;;;;;;;;;;;;;;;4392781;32;20089;-71
2020/12/22 00:37:58;;;;;;;5.57;3.80;;;;;;;;;;4405267;32;19991;-73
2020/12/22 00:40:24;;;;;;;4.87;3.65;;;;;;;;;;4379336;32;20562;-73
2020/12/22 00:42:50;;;;;;;;;;;;;;;;;;4380538;32;20158;-72
2020/12/22 00:45:16;;;;;;;6.22;4.18;;;;;;;;;;4407391;32;20061;-72
2020/12/22 00:47:41;;;;;;;;;;;;;;;;;;4394998;32;20070;-72
2020/12/22 00:50:07;;;;;;;6.93;4.35;;;;;;;;;;4394719;32;20069;-72
2020/12/22 00:52:32;;;;;;;;;;;;;;;;;;4395159;32;20128;-72
2020/12/22 00:54:58;;;;;;;6.68;4.10;;;;;;;;;;4421421;32;20440;-72
2020/12/22 00:57:24;;;;;;;;;;;;;;;;;;4421713;32;20169;-71
2020/12/22 00:59:49;;;;;;;5.72;3.90;;;;;;;;;;4407816;32;19964;-73
2020/12/22 01:02:15;;;;;;;;;;;;;;;;;;4407718;32;20078;-72
2020/12/22 01:04:41;;;;;;;5.10;3.62;;;;;;;;;;4407233;32;19976;-72
2020/12/22 01:07:06;;;;;;;5.07;3.50;;;;;;;;;;4407437;32;20085;-73
2020/12/22 01:09:32;;;;;;;;;;;;;;;;;;4409340;32;20462;-72
2020/12/22 01:11:58;;;;;;;6.47;3.87;;;;;;;;;;4407325;32;20449;-72
2020/12/22 01:14:23;;;;;;;;;;;;;;;;;;4369646;32;20444;-72
2020/12/22 01:16:49;;;;;;;7.07;4.00;;;;;;;;;;4407704;32;19973;-71
2020/12/22 01:19:17;;;;;;;6.68;3.67;;;;;;;;;;4395092;32;20451;-73
2020/12/22 01:21:43;;;;;;;;;;;;;;;;;;4408225;32;20083;-73
2020/12/22 01:24:08;;;;;;;4.37;3.10;;;;;;;;;;4407526;32;19972;-72
2020/12/22 01:26:34;;;;;;;;;;;;;;;;;;4394635;32;20081;-72
2020/12/22 01:28:59;;;;;;;5.57;3.65;;;;;;;;;;4408962;32;19980;-72
2020/12/22 01:31:26;;;;;;;;;;;;;;;;;;4407310;32;20066;-71
2020/12/22 01:33:52;;;;;;;5.60;3.12;;;;;;;;;;4406849;32;19964;-72
2020/12/22 01:36:18;;;;;;;6.78;3.40;;;;;;;;;;4382068;32;20516;-72
2020/12/22 01:38:45;;;;;;;5.10;3.50;;;;;;;;;;4381954;32;20092;-72
2020/12/22 01:41:10;;;;;;;6.22;3.53;;;;;;;;;;4394415;32;20081;-72
2020/12/22 01:43:37;;;;;;;;;;;;;;;;;;4408618;32;20157;-72
2020/12/22 01:46:04;;;;;;;8.20;4.32;;;;;;;;;;4409708;32;20063;-71
2020/12/22 01:48:30;;;;;;;5.62;3.60;;;;;;;;;;4383769;32;20062;-72
2020/12/22 01:50:55;;;;;;;;;;;;;;;;;;4397273;32;20104;-71
2020/12/22 01:53:21;;;;;;;5.37;3.40;;;;;;;;;;4409686;32;19971;-72
2020/12/22 01:55:47;;;;;;;;;;;;;;;;;;4409547;32;20100;-72
2020/12/22 01:58:12;;;;;;;5.60;3.50;;;;;;;;;;4423214;32;20060;-72
2020/12/22 02:00:38;;;;;;;6.37;3.72;;;;;;;;;;4396721;32;20077;-74
2020/12/22 02:03:04;;;;;;;;;;;;;;;;;;4384078;32;20100;-71
2020/12/22 02:05:32;;;;;;;6.25;3.62;;;;;;;;;;4409606;32;19984;-72
2020/12/22 02:07:58;;;;;;;4.97;3.50;;;;;;;;;;4384728;32;20241;-73
2020/12/22 02:10:23;;;;;;;;;;;;;;;;;;4409179;32;20099;-72
2020/12/22 02:12:49;;;;;;;5.45;3.33;;;;;;;;;;4409000;32;19977;-71
2020/12/22 02:15:14;;;;;;;;;;;;;;;;;;4423655;32;20084;-73
2020/12/22 02:17:40;;;;;;;5.82;3.35;;;;;;;;;;4408753;32;19971;-72
2020/12/22 02:20:06;;;;;;;;;;;;;;;;;;4384347;32;20066;-71
2020/12/22 02:22:33;;;;;;;5.78;3.55;;;;;;;;;;4409252;32;20044;-72
2020/12/22 02:24:59;;;;;;;6.35;3.22;;;;;;;;;;4371830;32;20073;-72
2020/12/22 02:27:24;;;;;;;;;;;;;;;;;;4409243;32;20077;-72
2020/12/22 02:29:50;;;;;;;6.85;3.62;;;;;;;;;;4423034;32;20368;-73
2020/12/22 02:32:16;;;;;;;;;;;;;;;;;;4422831;32;20077;-72
2020/12/22 02:34:41;;;;;;;5.50;3.50;;;;;;;;;;4408672;32;19995;-72
2020/12/22 02:37:07;;;;;;;;;;;;;;;;;;4396514;32;20093;-71
2020/12/22 02:39:32;;;;;;;5.30;3.42;;;;;;;;;;4408955;32;19991;-72
2020/12/22 02:41:58;;;;;;;6.20;3.83;;;;;;;;;;4408637;32;20450;-73
2020/12/22 02:44:24;;;;;;;;;;;;;;;;;;4396631;32;20177;-72
2020/12/22 02:46:49;;;;;;;6.03;3.60;;;;;;;;;;4420907;32;19976;-73
2020/12/22 02:49:15;;;;;;;;;;;;;;;;;;4396327;32;20077;-72
2020/12/22 02:51:41;;;;;;;6.22;3.60;;;;;;;;;;4422486;32;19987;-72
2020/12/22 02:54:06;;;;;;;;;;;;;;;;;;4408820;32;20062;-71
2020/12/22 02:56:33;;;;;;;5.75;3.67;;;;;;;;;;4408447;32;19987;-73
2020/12/22 02:58:59;;;;;;;5.05;3.78;;;;;;;;;;4409535;32;20069;-73
2020/12/22 03:01:24;;;;;;;;;;;;;;;;;;4406555;32;20155;-73
2020/12/22 03:03:50;;;;;;;5.55;3.80;;;;;;;;;;4406965;32;19969;-73
2020/12/22 03:06:16;;;;;;;;;;;;;;;;;;4394200;32;20061;-72
2020/12/22 03:08:41;;;;;;;6.37;3.72;;;;;;;;;;4407139;32;19984;-72
2020/12/22 03:11:07;;;;;;;;;;;;;;;;;;4393676;32;20083;-72
2020/12/22 03:13:33;;;;;;;7.18;4.03;;;;;;;;;;4407396;32;20369;-73
2020/12/22 03:15:58;;;;;;;5.65;3.83;;;;;;;;;;4409544;32;20081;-72
2020/12/22 03:18:24;;;;;;;;;;;;;;;;;;4416077;32;20463;-73
2020/12/22 03:20:50;;;;;;;6.62;4.00;;;;;;;;;;4409136;32;20382;-73
2020/12/22 03:23:15;;;;;;;6.47;3.78;;;;;;;;;;4380876;32;20192;-73
2020/12/22 03:25:41;;;;;;;;;;;;;;;;;;4395355;32;20620;-72
2020/12/22 03:28:07;;;;;;;5.90;4.28;;;;;;;;;;4409084;32;19978;-73
2020/12/22 03:30:32;;;;;;;;;;;;;;;;;;4410021;32;20077;-71
2020/12/22 03:32:58;;;;;;;7.07;4.05;;;;;;;;;;4407674;32;19965;-72
2020/12/22 03:35:24;;;;;;;5.97;3.87;;;;;;;;;;4406489;32;20077;-71
2020/12/22 03:37:49;;;;;;;;;;;;;;;;;;4408161;32;20109;-72
2020/12/22 03:40:16;;;;;;;5.70;3.72;;;;;;;;;;4407063;32;20075;-72
2020/12/22 03:42:42;;;;;;;6.70;4.18;;;;;;;;;;4381889;32;20548;-73
2020/12/22 03:45:07;;;;;;;;;;;;;;;;;;4412417;32;20077;-72
2020/12/22 03:47:33;;;;;;;5.57;3.97;;;;;;;;;;4397831;32;19976;-72
2020/12/22 03:49:59;;;;;;;7.37;4.28;;;;;;;;;;4403800;32;20081;-73
2020/12/22 03:52:25;;;;;;;6.20;4.25;;;;;;;;;;4411923;32;20161;-72
2020/12/22 03:54:51;;;;;;;7.82;4.22;;;;;;;;;;4408880;32;20069;-72
2020/12/22 03:57:16;;;;;;;;;;;;;;;;;;4398925;32;20085;-72
2020/12/22 03:59:43;;;;;;;6.00;4.28;;;;;;;;;;4408779;32;19964;-71
2020/12/22 04:02:08;;;;;;;6.03;3.80;;;;;;;;;;4389144;32;20183;-72
2020/12/22 04:04:34;;;;;;;;;;;;;;;;;;4395846;32;20472;-74
2020/12/22 04:07:00;;;;;;;6.37;4.28;;;;;;;;;;4392989;32;20036;-73
2020/12/22 04:09:25;;;;;;;;;;;;;;;;;;4380398;32;20071;-72
2020/12/22 04:11:51;;;;;;;6.32;4.15;;;;;;;;;;4392933;32;19976;-72
2020/12/22 04:14:17;;;;;;;;;;;;;;;;;;4407146;32;20575;-72
2020/12/22 04:16:43;;;;;;;5.40;3.30;;;;;;;;;;4392670;32;19961;-73
2020/12/22 04:19:09;;;;;;;5.28;3.10;;;;;;;;;;4368712;32;20166;-74
2020/12/22 04:21:34;;;;;;;;;;;;;;;;;;4382295;32;20549;-73
2020/12/22 04:24:00;;;;;;;5.90;3.12;;;;;;;;;;4394940;32;20383;-72
2020/12/22 04:26:27;;;;;;;6.62;3.20;;;;;;;;;;4392158;32;20084;-73
2020/12/22 04:28:52;;;;;;;4.75;3.05;;;;;;;;;;4379979;32;20516;-71
2020/12/22 04:31:21;;;;;;;;;;;;;;;;;;4380566;32;20104;-71
2020/12/22 04:33:56;;;;;;;6.35;3.78;;;;;;;;;;4379521;32;20405;-72
2020/12/22 04:36:22;;;;;;;6.40;3.40;;;;;;;;;;4369517;32;20491;-72
2020/12/22 04:38:48;;;;;;;;;;;;;;;;;;4382990;32;20081;-72
2020/12/22 04:41:15;;;;;;;5.65;3.58;;;;;;;;;;4395323;32;19987;-72
2020/12/22 04:43:41;;;;;;;6.07;3.28;;;;;;;;;;4370396;32;20069;-73
2020/12/22 04:46:07;;;;;;;;;;;;;;;;;;4402856;32;20095;-71
2020/12/22 04:48:38;;;;;;;6.28;3.90;;;;;;;;;;4395304;32;19995;-72
2020/12/22 04:51:07;;;;;;;6.10;3.28;;;;;;;;;;4383064;32;20074;-73
2020/12/22 04:53:33;;;;;;;5.47;3.22;;;;;;;;;;4382320;32;20137;-74
2020/12/22 04:56:00;;;;;;;7.22;3.53;;;;;;;;;;4369876;32;20089;-72
2020/12/22 04:58:27;;;;;;;5.50;3.60;;;;;;;;;;4395313;32;20177;-73
2020/12/22 05:00:54;;;;;;;5.30;3.37;;;;;;;;;;4395118;32;20061;-72
2020/12/22 05:03:21;;;;;;;7.05;3.65;;;;;;;;;;4382378;32;20519;-73
2020/12/22 05:05:47;;;;;;;5.75;3.30;;;;;;;;;;4370112;32;20066;-72
2020/12/22 05:08:12;;;;;;;;;;;;;;;;;;4395099;32;20149;-71
2020/12/22 05:10:44;;;;;;;6.75;3.70;;;;;;;;;;4408825;32;19972;-72
2020/12/22 05:13:10;;;;;;;6.32;3.67;;;;;;;;;;4370048;32;20548;-72
2020/12/22 05:15:40;;;;;;;6.18;3.35;;;;;;;;;;4382871;32;20582;-73
2020/12/22 05:18:07;;;;;;;5.50;3.75;;;;;;;;;;4369938;32;20070;-72
2020/12/22 05:20:33;;;;;;;6.30;3.62;;;;;;;;;;4382384;32;20135;-73
2020/12/22 05:22:59;;;;;;;6.03;3.58;;;;;;;;;;4369704;32;20475;-73
2020/12/22 05:25:25;;;;;;;;;;;;;;;;;;4394999;32;20081;-71
2020/12/22 05:27:51;;;;;;;4.47;2.97;;;;;;;;;;4381608;32;19984;-72
2020/12/22 05:30:17;;;;;;;5.72;3.95;;;;;;;;;;4382204;32;20467;-72
2020/12/22 05:32:43;;;;;;;;;;;;;;;;;;4370353;32;20073;-72
2020/12/22 05:35:12;;;;;;;5.72;3.80;;;;;;;;;;4408481;32;19961;-72
2020/12/22 05:37:40;;;;;;;4.97;2.95;;;;;;;;;;4394813;32;20085;-72
2020/12/22 05:40:10;;;;;;;4.20;2.83;;;;;;;;;;4382175;32;20511;-72
2020/12/22 05:42:36;;;;;;;6.45;3.10;;;;;;;;;;4394471;32;20169;-73
2020/12/22 05:45:04;;;;;;;4.93;3.12;;;;;;;;;;4372433;32;20152;-72
2020/12/22 05:47:30;;;;;;;6.03;3.45;;;;;;;;;;4383801;32;20088;-72
2020/12/22 05:49:58;;;;;;;;;;;;;;;;;;4410008;32;20088;-73
2020/12/22 05:52:24;;;;;;;5.05;3.40;;;;;;;;;;4409044;32;19982;-73
2020/12/22 05:54:51;;;;;;;6.72;3.33;;;;;;;;;;4383824;32;20160;-73
2020/12/22 05:57:30;;;;;;;6.97;4.00;;;;;;;;;;4383829;32;20065;-71
2020/12/22 05:59:56;;;;;;;6.20;3.22;;;;;;;;;;4397292;32;20057;-73
2020/12/22 06:02:29;;;;;;;5.82;3.95;;;;;;;;;;4385507;32;20542;-72
2020/12/22 06:04:56;;;;;;;5.50;3.70;;;;;;;;;;4393932;32;20637;-72
2020/12/22 06:07:22;;;;;;;6.78;4.18;;;;;;;;;;4369161;32;20081;-73
2020/12/22 06:09:48;;;;;;;;;;;;;;;;;;4394715;32;20597;-72
2020/12/22 06:12:13;;;;;;;5.50;3.37;;;;;;;;;;4394325;32;19976;-72
2020/12/22 06:14:57;;;;;;;6.70;3.75;;;;;;;;;;4380980;32;20495;-73
2020/12/22 06:17:23;;;;;;;6.97;3.67;;;;;;;;;;4392128;32;20089;-67
2020/12/22 06:19:49;;;;;;;;;;;;;;;;;;4422835;32;20165;-70
2020/12/22 06:22:16;;;;;;;5.25;3.40;;;;;;;;;;4405129;32;19985;-66
2020/12/22 06:24:42;;;;;;;5.90;3.60;;;;;;;;;;4407719;32;20172;-68
2020/12/22 06:27:12;;;;;;;6.30;3.97;;;;;;;;;;4393031;32;20090;-70
2020/12/22 06:29:42;;;;;;;6.55;3.72;;;;;;;;;;4368159;32;20159;-66
2020/12/22 06:32:27;;;;;;;5.87;3.75;;;;;;;;;;4394373;32;20087;-69
2020/12/22 06:34:54;;;;;;;7.78;4.10;;;;;;;;;;4379680;32;20495;-68
2020/12/22 06:37:22;;;;;;;6.60;3.62;;;;;;;;;;4374544;32;20117;-67
2020/12/22 06:39:49;;;;;;;7.40;4.05;;;;;;;;;;4382981;32;20499;-70
2020/12/22 06:42:30;;;;;;;7.00;4.15;;;;;;;;;;4372462;32;20076;-70
2020/12/22 06:45:18;;;;;;;6.70;4.03;;;;;;;;;;4425247;32;20060;-69
2020/12/22 06:47:44;;;;;;;5.97;3.40;;;;;;;;;;4378727;32;20497;-68
2020/12/22 06:50:09;;;;;;;;;;;;;;;;;;4402084;32;20084;-71
2020/12/22 06:52:37;;;;;;;5.82;3.55;;;;;;;;;;4421724;32;20003;-71
2020/12/22 06:55:07;;;;;;;5.97;4.28;;;;;;;;;;4390849;32;20071;-68
2020/12/22 06:57:42;;;;;;;6.72;4.15;;;;;;;;;;4397630;32;20065;-69
2020/12/22 07:00:09;;;;;;;6.22;3.75;;;;;;;;;;4391670;32;20066;-69
2020/12/22 07:02:36;;;;;;;6.28;4.12;;;;;;;;;;4392067;32;20494;-68
2020/12/22 07:05:06;;;;;;;6.40;3.85;;;;;;;;;;4395812;32;20073;-70
2020/12/22 07:07:58;;;;;;;6.85;4.22;;;;;;;;;;4381783;32;20161;-69
2020/12/22 07:10:28;;;;;;;6.50;4.20;;;;;;;;;;4403043;32;20504;-67
2020/12/22 07:12:57;;;;;;;6.00;4.15;;;;;;;;;;4386140;32;20153;-69
2020/12/22 07:15:44;;;;;;;7.07;4.00;;;;;;;;;;4381471;32;20104;-70
2020/12/22 07:18:15;;;;;;;6.90;4.53;;;;;;;;;;4394394;32;20061;-71
2020/12/22 07:20:41;;;;;;;6.10;3.80;;;;;;;;;;4383687;32;20065;-69
2020/12/22 07:23:08;;;;;;;6.28;4.07;;;;;;;;;;4386038;32;20080;-69
2020/12/22 07:25:35;;;;;;;6.87;4.07;;;;;;;;;;4407118;32;20237;-69
2020/12/22 07:28:02;;;;;;;6.37;4.10;;;;;;;;;;4382347;32;20116;-70
2020/12/22 07:30:28;;;;;;;7.30;4.40;;;;;;;;;;4380721;32;20101;-70
2020/12/22 07:32:53;;;;;;;6.80;4.10;;;;;;;;;;4405820;32;20549;-69
2020/12/22 07:35:19;;;;;;;;;;;;;;;;;;4391792;32;20071;-67
2020/12/22 07:37:45;;;;;;;5.95;3.85;;;;;;;;;;4391963;32;19965;-68
2020/12/22 07:40:12;;;;;;;;;;;;;;;;;;4387248;32;20072;-68
2020/12/22 07:42:38;;;;;;;5.60;3.85;;;;;;;;;;4399163;32;20049;-69
2020/12/22 07:45:07;;;;;;;6.03;3.58;;;;;;;;;;4406906;32;20125;-71
2020/12/22 07:47:33;;;;;;;5.93;3.45;;;;;;;;;;4381762;32;20486;-67
2020/12/22 07:50:14;;;;;;;7.43;3.92;;;;;;;;;;4391663;32;20551;-66
2020/12/22 07:52:39;;;;;;;5.85;4.12;;;;;;;;;;4367499;32;20470;-68
2020/12/22 07:55:07;;;;;;;6.07;3.83;;;;;;;;;;4378709;32;20073;-68
2020/12/22 07:57:35;;;;;;;6.70;4.30;;;;;;;;;;4393377;32;20088;-67
2020/12/22 08:00:11;;;;;;;7.78;4.65;;;;;;;;;;4392650;32;20073;-67
2020/12/22 08:02:37;;;;;;;6.85;4.55;;;;;;;;;;4378550;32;20442;-65
2020/12/22 08:05:20;;;;;;;7.37;3.95;;;;;;;;;;4380186;32;20073;-69
2020/12/22 08:07:52;;;;;;;7.20;4.53;;;;;;;;;;4406596;32;20057;-68
2020/12/22 08:10:18;;;;;;;7.35;4.10;;;;;;;;;;4408537;32;20084;-66
2020/12/22 08:12:45;;;;;;;7.28;4.43;;;;;;;;;;4406949;32;20069;-70
2020/12/22 08:15:11;;;;;;;6.50;4.00;;;;;;;;;;4387285;32;20459;-65
2020/12/22 08:17:41;;;;;;;7.68;4.35;;;;;;;;;;4404700;32;20074;-66
2020/12/22 08:20:07;;;;;;;7.75;4.47;;;;;;;;;;4372303;32;20151;-66
2020/12/22 08:22:33;;;;;;;7.95;4.22;;;;;;;;;;4407991;32;20096;-65
2020/12/22 08:25:00;;;;;;;6.95;4.20;;;;;;;;;;4396583;32;20108;-63
2020/12/22 08:27:26;;;;;;;6.68;4.28;;;;;;;;;;4391424;32;20150;-65
2020/12/22 08:29:51;;;;;;;7.45;4.70;;;;;;;;;;4402018;32;20081;-63
2020/12/22 08:32:22;;;;;;;7.05;4.47;;;;;;;;;;4393549;32;20120;-66
2020/12/22 08:34:52;;;;;;;6.93;4.40;;;;;;;;;;4379162;32;20053;-63
2020/12/22 08:37:27;;;;;;;8.63;5.12;;;;;;;;;;4406086;32;20498;-64
2020/12/22 08:39:53;;;;;;;7.15;4.20;;;;;;;;;;4373225;32;20077;-65
2020/12/22 08:42:20;;;;;;;7.00;4.35;;;;;;;;;;4379977;32;20093;-64
2020/12/22 08:44:50;;;;;;;7.53;4.03;;;;;;;;;;4384148;32;20077;-66
2020/12/22 08:47:16;;;;;;;6.45;4.28;;;;;;;;;;4379712;32;20141;-66
2020/12/22 08:49:42;;;;;;;5.85;4.10;;;;;;;;;;4392125;32;20084;-69
2020/12/22 08:52:15;;;;;;;6.53;4.87;;;;;;;;;;4395879;32;20073;-65
2020/12/22 08:54:42;;;;;;;6.78;4.62;;;;;;;;;;4392638;32;20101;-66
2020/12/22 08:57:26;;;;;;;6.57;4.57;;;;;;;;;;4389154;32;20141;-67
2020/12/22 08:59:52;;;;;;;6.70;4.57;;;;;;;;;;4395268;32;20200;-67
2020/12/22 09:02:32;;;;;;;7.20;4.93;;;;;;;;;;4415566;32;20502;-66
2020/12/22 09:04:58;;;;;;;7.43;4.72;;;;;;;;;;4382660;32;20456;-70
2020/12/22 09:07:27;;;;;;;7.37;4.75;;;;;;;;;;4375007;32;20114;-70
2020/12/22 09:09:54;;;;;;;8.38;5.07;;;;;;;;;;4402515;32;20073;-72
2020/12/22 09:12:31;;;;;;;6.90;4.00;;;;;;;;;;4397672;32;20069;-67
2020/12/22 09:15:19;;;;;;;7.20;4.32;;;;;;;;;;4401554;32;20079;-70
2020/12/22 09:17:45;;;;;;;6.95;4.37;;;;;;;;;;4377627;32;20089;-71
2020/12/22 09:20:17;;;;;;;7.10;4.70;;;;;;;;;;4416309;32;20101;-73
2020/12/22 09:22:42;;;;;;;7.22;5.05;;;;;;;;;;4391630;32;20072;-67
2020/12/22 09:25:08;;;;;;;7.40;5.00;;;;;;;;;;4405462;32;20074;-72
2020/12/22 09:27:37;;;;;;;7.50;4.65;;;;;;;;;;4400346;32;20133;-72
2020/12/22 09:30:07;;;;;;;7.60;5.25;;;;;;;;;;4379907;32;20068;-64
2020/12/22 09:32:32;;;;;;;8.68;5.12;;;;;;;;;;4389998;32;20085;-67
2020/12/22 09:35:02;;;;;;;6.95;4.60;;;;;;;;;;4408577;32;20090;-66
2020/12/22 09:37:31;;;;;;;7.25;4.55;;;;;;;;;;4387374;32;20537;-70
2020/12/22 09:40:00;;;;;;;6.82;4.32;;;;;;;;;;4388137;32;20101;-67
2020/12/22 09:42:27;;;;;;;8.90;5.53;;;;;;;;;;4377143;32;20442;-68
2020/12/22 09:44:53;;;;;;;6.93;4.20;;;;;;;;;;4397582;32;20073;-68
2020/12/22 09:47:19;;;;;;;10.70;4.28;;;;;;;;;;4404709;32;20544;-70
2020/12/22 09:49:45;;;;;;;6.75;4.50;;;;;;;;;;4413404;32;20065;-66
2020/12/22 09:52:11;;;;;;;7.43;4.82;;;;;;;;;;4394299;32;20503;-70
2020/12/22 09:54:36;;;;;;;6.50;4.40;;;;;;;;;;4394668;32;20496;-65
2020/12/22 09:57:02;;;;;;;6.35;4.50;;;;;;;;;;4408716;32;20172;-67
2020/12/22 09:59:28;;;;;;;7.30;5.20;;;;;;;;;;4371273;32;20073;-66
2020/12/22 10:01:55;;;;;;;6.47;4.85;;;;;;;;;;4400976;32;20084;-65
2020/12/22 10:04:21;;;;;;;8.15;5.30;;;;;;;;;;4378997;32;20182;-68
2020/12/22 10:06:49;;;;;;;7.28;4.82;;;;;;;;;;4422258;32;20081;-69
2020/12/22 10:09:14;;;;;;;7.07;4.80;;;;;;;;;;4394652;32;20057;-67
2020/12/22 10:11:40;;;;;;;7.97;4.60;;;;;;;;;;4394295;32;20053;-65
2020/12/22 10:14:06;;;;;;;7.55;5.10;;;;;;;;;;4407710;32;20097;-67
2020/12/22 10:16:32;;;;;;;8.07;5.30;;;;;;;;;;4392251;32;20070;-68
2020/12/22 10:18:58;;;;;;;7.90;4.75;;;;;;;;;;4392844;32;20081;-66
2020/12/22 10:21:26;;;;;;;7.28;4.50;;;;;;;;;;4395761;32;20100;-67
2020/12/22 10:23:52;;;;;;;7.57;4.60;;;;;;;;;;4379629;32;20479;-65
2020/12/22 10:26:19;;;;;;;7.65;4.97;;;;;;;;;;4365392;32;20637;-66
2020/12/22 10:28:47;;;;;;;7.57;4.75;;;;;;;;;;4386123;32;20207;-65
2020/12/22 10:31:14;;;;;;;7.20;4.07;;;;;;;;;;4381140;32;20077;-66
2020/12/22 10:33:39;;;;;;;6.78;4.40;;;;;;;;;;4373609;32;20496;-67
2020/12/22 10:36:05;;;;;;;6.55;4.25;;;;;;;;;;4378569;32;20096;-66
2020/12/22 10:38:31;;;;;;;9.35;4.53;;;;;;;;;;4400579;32;20086;-64
2020/12/22 10:41:00;;;;;;;8.73;5.25;;;;;;;;;;4406331;32;20491;-65
2020/12/22 10:43:26;;;;;;;7.62;4.78;;;;;;;;;;4399286;32;20065;-65
2020/12/22 10:45:52;;;;;;;6.40;4.00;;;;;;;;;;4377473;32;20093;-71
2020/12/22 10:48:17;;;;;;;7.97;4.70;;;;;;;;;;4407680;32;20101;-69
2020/12/22 10:50:44;;;;;;;7.25;4.62;;;;;;;;;;4408123;32;20077;-70
2020/12/22 10:53:10;;;;;;;8.20;4.55;;;;;;;;;;4391065;32;20471;-66
2020/12/22 10:55:35;;;;;;;7.28;4.62;;;;;;;;;;4390161;32;20097;-68
2020/12/22 10:58:04;;;;;;;7.55;4.85;;;;;;;;;;4391263;32;20579;-69
2020/12/22 11:00:30;;;;;;;8.65;4.70;;;;;;;;;;4392795;32;20515;-69
2020/12/22 11:03:00;;;;;;;6.95;5.15;;;;;;;;;;4392563;32;20196;-68
2020/12/22 11:08:10;;;;;;;6.68;3.97;;;;;;;;;;4395793;32;20061;-69
2020/12/22 11:10:40;;;;;;;7.15;4.05;;;;;;;;;;4383755;32;20081;-66
2020/12/22 11:13:07;;;;;;;7.12;3.87;;;;;;;;;;4372321;32;20541;-67
2020/12/22 11:15:33;;;;;;;7.72;4.32;;;;;;;;;;4402733;32;20069;-71
2020/12/22 11:17:58;;;;;;;8.95;4.87;;;;;;;;;;4368428;32;20257;-71
2020/12/22 11:20:24;;;;;;;7.62;4.78;;;;;;;;;;4377793;32;20109;-72
2020/12/22 11:22:50;;;;;;;6.87;4.43;;;;;;;;;;4379772;32;20532;-72
2020/12/22 11:25:16;;;;;;;7.87;4.60;;;;;;;;;;4384563;32;20073;-73
2020/12/22 11:27:42;;;;;;;8.30;5.07;;;;;;;;;;4385189;32;20178;-72
2020/12/22 11:30:07;;;;;;;7.05;4.87;;;;;;;;;;4379518;32;20073;-73
2020/12/22 11:32:33;;;;;;;7.43;5.12;;;;;;;;;;4411758;32;20087;-72
2020/12/22 11:34:59;;;;;;;6.97;4.45;;;;;;;;;;4393310;32;20111;-72
2020/12/22 11:37:26;;;;;;;7.57;5.12;;;;;;;;;;4420022;32;20061;-72
2020/12/22 11:39:55;;;;;;;7.68;4.60;;;;;;;;;;4392847;32;20081;-72
2020/12/22 11:42:21;;;;;;;8.70;4.97;;;;;;;;;;4396418;32;20125;-71
2020/12/22 11:44:47;;;;;;;7.20;4.97;;;;;;;;;;4405027;32;20066;-72
2020/12/22 11:47:13;;;;;;;8.10;5.07;;;;;;;;;;4381986;32;20217;-72
2020/12/22 11:49:40;;;;;;;7.15;4.87;;;;;;;;;;4383031;32;20092;-76
2020/12/22 11:52:06;;;;;;;6.37;4.47;;;;;;;;;;4384050;32;20069;-74
2020/12/22 11:54:31;;;;;;;6.70;3.92;;;;;;;;;;4397096;32;20108;-70
2020/12/22 11:56:58;;;;;;;9.13;4.12;;;;;;;;;;4381716;32;20077;-72
2020/12/22 11:59:24;;;;;;;6.78;4.60;;;;;;;;;;4397275;32;20065;-71
2020/12/22 12:01:50;;;;;;;6.97;4.80;;;;;;;;;;4395228;32;20148;-72
2020/12/22 12:04:15;;;;;;;6.60;4.20;;;;;;;;;;4381809;32;20081;-70
2020/12/22 12:06:48;;;;;;;7.07;4.43;;;;;;;;;;4392690;32;20069;-70
2020/12/22 12:09:14;;;;;;;7.40;4.15;;;;;;;;;;4399282;32;20152;-67
2020/12/22 12:11:41;;;;;;;8.40;5.18;;;;;;;;;;4383893;32;20192;-66
2020/12/22 12:14:07;;;;;;;8.85;5.60;;;;;;;;;;4378817;32;20093;-68
2020/12/22 12:16:33;;;;;;;7.62;5.15;;;;;;;;;;4370069;32;20054;-71
2020/12/22 12:18:59;;;;;;;7.80;4.65;;;;;;;;;;4392255;32;20172;-69
2020/12/22 12:21:26;;;;;;;7.00;4.80;;;;;;;;;;4366536;32;20442;-68
2020/12/22 12:23:51;;;;;;;8.90;5.87;;;;;;;;;;4400897;32;20077;-70
2020/12/22 12:26:17;;;;;;;8.00;5.43;;;;;;;;;;4381065;32;20188;-71
2020/12/22 12:28:43;;;;;;;9.32;4.62;;;;;;;;;;4384638;32;20069;-70
2020/12/22 12:31:13;;;;;;;7.97;5.28;;;;;;;;;;4423501;32;20234;-67
2020/12/22 12:33:40;;;;;;;7.30;5.10;;;;;;;;;;4365230;32;20151;-70
2020/12/22 12:36:06;;;;;;;7.30;5.15;;;;;;;;;;4370947;32;20490;-67
2020/12/22 12:38:32;;;;;;;7.62;5.43;;;;;;;;;;4397330;32;20089;-66
2020/12/22 12:40:57;;;;;;;8.27;5.15;;;;;;;;;;4385934;32;20568;-70
2020/12/22 12:43:23;;;;;;;8.43;5.50;;;;;;;;;;4408944;32;20084;-70
2020/12/22 12:45:49;;;;;;;8.88;6.07;;;;;;;;;;4395269;32;20132;-70
2020/12/22 12:48:14;;;;;;;8.07;5.10;;;;;;;;;;4387984;32;20080;-69
2020/12/22 12:50:40;;;;;;;7.62;4.87;;;;;;;;;;4401948;32;20160;-71
2020/12/22 12:53:06;;;;;;;9.15;5.03;;;;;;;;;;4403414;32;20174;-71
2020/12/22 12:55:32;;;;;;;8.30;5.32;;;;;;;;;;4394485;32;20469;-73
2020/12/22 12:57:58;;;;;;;7.07;4.90;;;;;;;;;;4396285;32;20140;-69
2020/12/22 13:00:24;;;;;;;7.25;5.37;;;;;;;;;;4394028;32;20504;-69
2020/12/22 13:02:50;;;;;;;8.35;5.15;;;;;;;;;;4408179;32;20124;-70
2020/12/22 13:05:15;;;;;;;20.23;6.25;;;;;;;;;;4401880;32;20157;-70
2020/12/22 13:07:41;;;;;;;8.27;5.70;;;;;;;;;;4420546;32;20096;-67
2020/12/22 13:10:07;;;;;;;9.27;5.90;;;;;;;;;;4397506;32;20085;-69
2020/12/22 13:12:33;;;;;;;10.20;5.65;;;;;;;;;;4374027;32;20149;-69
2020/12/22 13:14:58;;;;;;;6.90;5.05;;;;;;;;;;4388487;32;20078;-70
2020/12/22 13:17:24;;;;;;;7.30;5.43;;;;;;;;;;4394594;32;20085;-67
2020/12/22 13:19:50;;;;;;;8.02;5.37;;;;;;;;;;4383184;32;20073;-70
2020/12/22 13:22:15;;;;;;;8.85;5.28;;;;;;;;;;4404406;32;20092;-67
2020/12/22 13:24:41;;;;;;;8.25;5.32;;;;;;;;;;4409184;32;20526;-69
2020/12/22 13:27:07;;;;;;;8.45;5.05;;;;;;;;;;4418881;32;20502;-69
2020/12/22 13:29:33;;;;;;;9.00;5.87;;;;;;;;;;4393702;32;20137;-68
2020/12/22 13:32:00;;;;;;;8.43;5.80;;;;;;;;;;4392719;32;20118;-66
2020/12/22 13:34:26;;;;;;;8.05;5.68;;;;;;;;;;4400696;32;20127;-72
2020/12/22 13:36:52;;;;;;;8.35;5.65;;;;;;;;;;4373351;32;20561;-69
2020/12/22 13:39:18;;;;;;;7.35;5.40;;;;;;;;;;4375603;32;20097;-66
2020/12/22 13:41:46;;;;;;;9.35;5.40;;;;;;;;;;4390266;32;20111;-67
2020/12/22 13:44:11;;;;;;;7.45;5.30;;;;;;;;;;4388983;32;20050;-66
2020/12/22 13:46:37;;;;;;;7.85;4.70;;;;;;;;;;4401299;32;20111;-69
2020/12/22 13:49:03;;;;;;;8.88;5.22;;;;;;;;;;4379937;32;20085;-68
2020/12/22 13:51:29;;;;;;;10.98;6.78;;;;;;;;;;4397707;32;20085;-66
2020/12/22 13:53:54;;;;;;;8.10;5.18;;;;;;;;;;4421941;32;20448;-70
2020/12/22 13:56:20;;;;;;;8.00;5.18;;;;;;;;;;4408555;32;20160;-72
2020/12/22 13:58:46;;;;;;;7.28;5.47;;;;;;;;;;4381505;32;20073;-70
2020/12/22 14:01:12;;;;;;;9.02;5.60;;;;;;;;;;4382423;32;20450;-66
2020/12/22 14:03:38;;;;;;;8.07;5.35;;;;;;;;;;4381506;32;20523;-69
2020/12/22 14:06:04;;;;;;;8.38;5.30;;;;;;;;;;4407466;32;20064;-67
2020/12/22 14:08:29;;;;;;;7.57;5.18;;;;;;;;;;4391327;32;20108;-73
2020/12/22 14:10:55;;;;;;;7.28;5.10;;;;;;;;;;4407947;32;20515;-71
2020/12/22 14:13:21;;;;;;;8.60;5.22;;;;;;;;;;4400662;32;20108;-69
2020/12/22 14:15:47;;;;;;;6.87;4.97;;;;;;;;;;4380392;32;20487;-66
2020/12/22 14:18:12;;;;;;;7.82;5.00;;;;;;;;;;4392266;32;20535;-70
2020/12/22 14:20:41;;;;;;;6.62;4.75;;;;;;;;;;4394837;32;20066;-75
2020/12/22 14:23:07;;;;;;;7.40;4.72;;;;;;;;;;4384931;32;20154;-70
2020/12/22 14:25:34;;;;;;;8.25;5.15;;;;;;;;;;4381331;32;20509;-73
2020/12/22 14:28:00;;;;;;;8.82;5.10;;;;;;;;;;4392505;32;20099;-73
2020/12/22 14:30:25;;;;;;;7.50;5.07;;;;;;;;;;4395954;32;20503;-72
2020/12/22 14:32:53;;;;;;;7.75;5.03;;;;;;;;;;4388809;32;20085;-71
2020/12/22 14:35:19;;;;;;;7.95;5.37;;;;;;;;;;4393398;32;20514;-70
2020/12/22 14:37:44;;;;;;;7.62;4.62;;;;;;;;;;4404369;32;20503;-72
2020/12/22 14:40:10;;;;;;;8.57;6.03;;;;;;;;;;4392542;32;20085;-70
2020/12/22 14:42:36;;;;;;;8.07;5.05;;;;;;;;;;4383607;32;20065;-71
2020/12/22 14:45:03;;;;;;;7.62;5.53;;;;;;;;;;4407562;32;20099;-71
2020/12/22 14:47:29;;;;;;;8.32;5.90;;;;;;;;;;4383432;32;20172;-70
2020/12/22 14:49:54;;;;;;;7.85;5.25;;;;;;;;;;4407366;32;20115;-69
2020/12/22 14:52:20;;;;;;;8.32;5.28;;;;;;;;;;4393046;32;20073;-71
2020/12/22 14:54:46;;;;;;;7.90;5.53;;;;;;;;;;4402091;32;20096;-71
2020/12/22 14:57:12;;;;;;;8.82;5.70;;;;;;;;;;4406467;32;20504;-71
2020/12/22 14:59:40;;;;;;;9.25;5.90;;;;;;;;;;4380604;32;20104;-70